Time;durP1;ratioP1;P1;durP2;ratioP2;P2;SDS_P1;SDS_P2;PMS_P1;PMS_P2;Temp;Humidity;BMP_temperature;BMP_pressure;BME280_temperature;BME280_humidity;BME280_pressure;Samples;Min_cycle;Max_cycle;Signal;HPM_P1;HPM_P2
2023/09/18 00:02:08;;;;;;;7.93;7.30;;;22.40;36.70;;;;;;10253300;28;20266;-75
2023/09/18 00:07:14;;;;;;;7.87;7.20;;;22.30;36.70;;;;;;10251384;28;20928;-75
2023/09/18 00:12:17;;;;;;;7.00;6.40;;;22.30;37.50;;;;;;10243732;28;20229;-75
2023/09/18 00:17:21;;;;;;;7.60;7.00;;;22.20;37.00;;;;;;10256581;28;20227;-75
2023/09/18 00:22:25;;;;;;;7.40;6.90;;;22.10;37.30;;;;;;10256246;28;20313;-75
2023/09/18 00:27:29;;;;;;;6.80;6.30;;;22.00;37.60;;;;;;10254724;28;20238;-75
2023/09/18 00:32:32;;;;;;;6.97;6.47;;;22.00;37.50;;;;;;10251156;28;20231;-75
2023/09/18 00:37:39;;;;;;;7.37;6.80;;;22.00;37.40;;;;;;10252672;28;20216;-75
2023/09/18 00:42:43;;;;;;;6.57;6.10;;;22.00;37.70;;;;;;10254619;28;20219;-75
2023/09/18 00:47:46;;;;;;;7.30;6.80;;;22.00;37.20;;;;;;10262483;28;20652;-75
2023/09/18 00:52:51;;;;;;;7.43;6.80;;;21.90;37.30;;;;;;10254086;28;20368;-75
2023/09/18 00:57:56;;;;;;;6.70;6.20;;;21.70;38.00;;;;;;10249447;28;20231;-75
2023/09/18 01:03:00;;;;;;;6.90;6.30;;;21.60;37.90;;;;;;10257059;28;20704;-73
2023/09/18 01:08:05;;;;;;;6.43;6.03;;;21.50;37.80;;;;;;10264116;28;20317;-74
2023/09/18 01:13:15;;;;;;;7.67;7.07;;;21.50;37.80;;;;;;10262678;28;20247;-73
2023/09/18 01:18:19;;;;;;;7.77;7.17;;;21.50;37.80;;;;;;10257947;28;20316;-73
2023/09/18 01:23:24;;;;;;;6.57;6.10;;;21.50;37.80;;;;;;10271451;28;20757;-73
2023/09/18 01:28:27;;;;;;;7.60;7.03;;;21.40;37.80;;;;;;10260344;28;20246;-73
2023/09/18 01:33:31;;;;;;;6.23;5.83;;;21.30;37.60;;;;;;10263794;28;20243;-73
2023/09/18 01:38:37;;;;;;;5.83;5.43;;;21.30;37.70;;;;;;10260683;28;20236;-73
2023/09/18 01:43:40;;;;;;;6.20;5.80;;;21.20;37.60;;;;;;10258372;28;20677;-73
2023/09/18 01:48:47;;;;;;;6.13;5.67;;;21.20;37.60;;;;;;10257082;28;20609;-73
2023/09/18 01:53:53;;;;;;;6.90;6.40;;;21.20;38.20;;;;;;10259754;28;20231;-73
2023/09/18 01:58:56;;;;;;;6.23;5.73;;;21.20;38.20;;;;;;10256586;28;20912;-73
2023/09/18 02:04:01;;;;;;;7.10;6.60;;;21.10;37.50;;;;;;10248674;28;20317;-73
2023/09/18 02:09:25;;;;;;;6.07;5.57;;;21.10;37.80;;;;;;10252790;28;20236;-73
2023/09/18 02:14:30;;;;;;;6.20;5.63;;;21.00;38.00;;;;;;10251744;28;20247;-73
2023/09/18 02:19:33;;;;;;;5.07;4.70;;;21.00;37.50;;;;;;10260850;28;20232;-73
2023/09/18 02:24:39;;;;;;;6.50;6.00;;;20.90;37.70;;;;;;10253608;28;20774;-73
2023/09/18 02:29:42;;;;;;;6.23;5.73;;;20.90;38.40;;;;;;10254409;28;20239;-73
2023/09/18 02:34:45;;;;;;;6.63;6.13;;;20.80;38.00;;;;;;10264619;28;20236;-74
2023/09/18 02:39:50;;;;;;;6.17;5.57;;;20.80;38.30;;;;;;10262590;28;20998;-73
2023/09/18 02:44:53;;;;;;;6.00;5.53;;;20.80;38.70;;;;;;10258965;28;20235;-74
2023/09/18 02:49:56;;;;;;;7.03;6.43;;;20.80;38.40;;;;;;10261831;28;20242;-74
2023/09/18 02:55:01;;;;;;;7.37;6.77;;;20.70;38.20;;;;;;10255197;28;20242;-74
2023/09/18 03:00:06;;;;;;;7.77;7.17;;;20.70;38.80;;;;;;10254375;28;20224;-74
2023/09/18 03:05:09;;;;;;;6.57;6.07;;;20.60;38.60;;;;;;10265251;28;20748;-74
2023/09/18 03:10:15;;;;;;;7.40;6.77;;;20.50;38.70;;;;;;10256914;28;20257;-73
2023/09/18 03:15:20;;;;;;;6.33;5.83;;;20.40;39.20;;;;;;10256761;28;20803;-74
2023/09/18 03:20:24;;;;;;;7.10;6.50;;;20.40;38.80;;;;;;10249362;28;20777;-74
2023/09/18 03:25:29;;;;;;;6.70;6.20;;;20.40;39.00;;;;;;10259073;28;20235;-73
2023/09/18 03:30:51;;;;;;;7.73;7.13;;;20.40;39.30;;;;;;10255595;28;20224;-74
2023/09/18 03:35:57;;;;;;;7.43;6.83;;;20.40;39.20;;;;;;10257974;28;20304;-74
2023/09/18 03:41:02;;;;;;;6.23;5.73;;;20.40;39.10;;;;;;10256089;28;20219;-74
2023/09/18 03:46:06;;;;;;;7.67;7.07;;;20.30;39.60;;;;;;10259588;28;20686;-75
2023/09/18 03:51:15;;;;;;;6.47;5.97;;;20.30;39.20;;;;;;10247777;28;20263;-73
2023/09/18 03:56:21;;;;;;;6.80;6.20;;;20.30;39.10;;;;;;10250198;28;20278;-74
2023/09/18 04:01:24;;;;;;;6.50;6.10;;;20.30;39.60;;;;;;10255929;28;20238;-74
2023/09/18 04:06:37;;;;;;;5.87;5.37;;;20.20;39.20;;;;;;10254822;28;20887;-76
2023/09/18 04:11:41;;;;;;;6.60;6.10;;;20.30;40.20;;;;;;10252171;28;20231;-76
2023/09/18 04:16:45;;;;;;;6.77;6.27;;;20.30;39.80;;;;;;10255726;28;20243;-74
2023/09/18 04:21:48;;;;;;;7.40;6.80;;;20.20;39.40;;;;;;10254358;28;20282;-75
2023/09/18 04:26:53;;;;;;;6.97;6.37;;;20.20;39.50;;;;;;10250893;28;20223;-75
2023/09/18 04:31:57;;;;;;;7.10;6.50;;;20.10;39.50;;;;;;10248575;28;20232;-74
2023/09/18 04:37:01;;;;;;;7.17;6.47;;;20.10;39.10;;;;;;10256276;28;20232;-73
2023/09/18 04:42:05;;;;;;;7.70;7.03;;;20.00;39.10;;;;;;10251219;28;20231;-73
2023/09/18 04:47:09;;;;;;;10.03;7.00;;;20.00;39.80;;;;;;10248620;28;20242;-74
2023/09/18 04:52:13;;;;;;;8.80;7.20;;;20.00;39.60;;;;;;10251388;28;20291;-74
2023/09/18 04:57:18;;;;;;;8.37;7.17;;;19.90;39.60;;;;;;10257616;28;20227;-73
2023/09/18 05:02:43;;;;;;;8.10;6.10;;;19.90;39.60;;;;;;10250800;28;20224;-74
2023/09/18 05:07:47;;;;;;;7.73;6.47;;;19.80;39.20;;;;;;10255344;28;20236;-74
2023/09/18 05:12:58;;;;;;;8.13;7.33;;;19.80;39.30;;;;;;10253030;28;20890;-74
2023/09/18 05:18:03;;;;;;;9.40;7.70;;;19.80;40.00;;;;;;10258944;28;20275;-74
2023/09/18 05:23:08;;;;;;;8.13;7.33;;;19.60;39.70;;;;;;10246818;28;20236;-73
2023/09/18 05:28:13;;;;;;;7.70;7.10;;;19.50;40.20;;;;;;10251658;28;20886;-75
2023/09/18 05:33:16;;;;;;;10.80;6.33;;;19.40;40.80;;;;;;10253212;28;20756;-75
2023/09/18 05:38:19;;;;;;;7.83;6.77;;;19.40;40.70;;;;;;10248860;28;20282;-76
2023/09/18 05:43:24;;;;;;;12.10;6.83;;;19.40;41.10;;;;;;10250555;28;20255;-76
2023/09/18 05:48:28;;;;;;;35.67;8.30;;;19.40;41.80;;;;;;10250703;28;20231;-76
2023/09/18 05:53:34;;;;;;;8.47;7.63;;;19.40;41.50;;;;;;10267797;28;20243;-75
2023/09/18 05:58:39;;;;;;;7.87;6.73;;;19.40;41.70;;;;;;10260961;28;20263;-75
2023/09/18 06:03:42;;;;;;;8.53;7.73;;;19.40;42.30;;;;;;10258072;28;20777;-75
2023/09/18 06:08:45;;;;;;;7.07;6.57;;;19.50;42.20;;;;;;10259540;28;20313;-75
2023/09/18 06:13:50;;;;;;;9.97;9.17;;;19.60;42.30;;;;;;10261352;28;20237;-75
2023/09/18 06:18:55;;;;;;;9.93;9.13;;;19.80;43.20;;;;;;10262749;28;20225;-75
2023/09/18 06:23:59;;;;;;;12.67;11.60;;;19.80;42.50;;;;;;10257898;28;20453;-75
2023/09/18 06:29:04;;;;;;;11.57;10.57;;;19.90;43.10;;;;;;10263846;28;20330;-74
2023/09/18 06:34:07;;;;;;;11.80;10.77;;;20.00;44.10;;;;;;10261841;28;20234;-75
2023/09/18 06:39:11;;;;;;;12.23;11.23;;;20.20;43.60;;;;;;10257555;28;20224;-75
2023/09/18 06:44:15;;;;;;;10.30;9.50;;;20.30;44.50;;;;;;10260682;28;20320;-76
2023/09/18 06:49:18;;;;;;;7.93;7.33;;;20.30;44.70;;;;;;10257295;28;20220;-73
2023/09/18 06:54:23;;;;;;;8.30;7.50;;;20.50;44.10;;;;;;10253976;28;20248;-73
2023/09/18 06:59:27;;;;;;;7.97;7.30;;;20.60;44.10;;;;;;10268773;28;20730;-74
2023/09/18 07:04:33;;;;;;;6.90;6.40;;;20.70;44.90;;;;;;10260853;28;20238;-73
2023/09/18 07:09:36;;;;;;;7.77;7.17;;;20.80;44.20;;;;;;10257411;28;20610;-73
2023/09/18 07:14:59;;;;;;;7.60;7.03;;;20.90;44.50;;;;;;10266351;28;20236;-73
2023/09/18 07:20:09;;;;;;;9.00;8.30;;;21.00;45.50;;;;;;10271425;28;20594;-73
2023/09/18 07:25:13;;;;;;;8.73;8.03;;;21.20;44.70;;;;;;10268630;28;20220;-73
2023/09/18 07:30:19;;;;;;;6.57;6.03;;;21.30;44.80;;;;;;10274183;28;20594;-73
2023/09/18 07:35:22;;;;;;;6.87;6.37;;;21.40;45.10;;;;;;10262826;28;20259;-73
2023/09/18 07:40:26;;;;;;;6.53;6.03;;;21.60;44.80;;;;;;10270810;28;20239;-72
2023/09/18 07:45:30;;;;;;;6.13;5.70;;;21.70;44.60;;;;;;10269510;28;20236;-72
2023/09/18 07:50:33;;;;;;;6.40;5.90;;;21.80;45.00;;;;;;10265464;28;20310;-72
2023/09/18 07:55:36;;;;;;;6.10;5.60;;;22.00;44.60;;;;;;10256341;28;20232;-72
2023/09/18 08:00:41;;;;;;;5.77;5.37;;;22.20;44.60;;;;;;10260861;28;20327;-73
2023/09/18 08:05:44;;;;;;;5.73;5.33;;;22.40;44.70;;;;;;10275009;28;20736;-73
2023/09/18 08:10:48;;;;;;;5.67;5.17;;;22.60;44.10;;;;;;10274418;28;20231;-72
2023/09/18 08:15:52;;;;;;;5.30;4.97;;;22.70;44.20;;;;;;10266386;28;20620;-72
2023/09/18 08:20:58;;;;;;;5.37;4.97;;;22.90;44.50;;;;;;10266091;28;20259;-72
2023/09/18 08:26:01;;;;;;;5.37;4.97;;;23.20;44.70;;;;;;10270100;28;20224;-72
2023/09/18 08:31:05;;;;;;;5.23;4.83;;;23.50;44.40;;;;;;10268005;28;20702;-72
2023/09/18 08:36:09;;;;;;;5.27;4.80;;;23.70;43.80;;;;;;10274383;28;20661;-72
2023/09/18 08:41:13;;;;;;;4.33;4.10;;;24.00;43.70;;;;;;10263515;28;20235;-72
2023/09/18 08:46:18;;;;;;;5.20;4.70;;;24.10;43.20;;;;;;10268813;28;20649;-72
2023/09/18 08:51:22;;;;;;;5.43;4.90;;;24.30;43.00;;;;;;10267945;28;20235;-72
2023/09/18 08:56:28;;;;;;;5.60;5.10;;;24.40;43.30;;;;;;10264983;28;20247;-72
2023/09/18 09:01:33;;;;;;;5.10;4.70;;;24.60;43.10;;;;;;10262749;28;20239;-72
2023/09/18 09:06:36;;;;;;;5.47;4.97;;;24.90;42.90;;;;;;10265658;28;20286;-72
2023/09/18 09:11:40;;;;;;;7.50;5.60;;;25.10;42.60;;;;;;10259683;28;20286;-72
2023/09/18 09:16:49;;;;;;;5.67;5.17;;;25.30;41.50;;;;;;10260964;28;20247;-72
2023/09/18 09:21:55;;;;;;;6.23;4.93;;;25.40;41.20;;;;;;10265771;28;20232;-72
2023/09/18 09:27:00;;;;;;;4.60;4.30;;;25.60;41.30;;;;;;10269570;28;20232;-72
2023/09/18 09:32:19;;;;;;;4.87;4.33;;;25.80;41.40;;;;;;10279462;28;20307;-72
2023/09/18 09:37:30;;;;;;;4.40;4.10;;;26.00;40.60;;;;;;10271802;28;20239;-72
2023/09/18 09:42:40;;;;;;;24.67;6.30;;;26.20;40.20;;;;;;10270993;28;20243;-72
2023/09/18 09:47:45;;;;;;;5.57;3.93;;;26.30;39.60;;;;;;10267567;28;20310;-72
2023/09/18 09:52:51;;;;;;;6.03;4.50;;;26.40;40.00;;;;;;10268639;28;21014;-73
2023/09/18 09:57:59;;;;;;;4.40;4.03;;;26.50;39.40;;;;;;10262981;28;20323;-72
2023/09/18 10:03:09;;;;;;;5.57;4.50;;;26.50;39.80;;;;;;10261215;28;20224;-73
2023/09/18 10:08:15;;;;;;;5.70;4.47;;;26.50;39.20;;;;;;10257941;28;20227;-72
2023/09/18 10:13:21;;;;;;;4.33;3.90;;;26.50;39.70;;;;;;10261540;28;20235;-72
2023/09/18 10:18:29;;;;;;;5.27;4.03;;;26.60;39.90;;;;;;10251315;28;20270;-73
2023/09/18 10:23:47;;;;;;;4.63;3.93;;;26.60;38.70;;;;;;10253370;28;20330;-73
2023/09/18 10:28:52;;;;;;;4.13;3.77;;;26.70;39.10;;;;;;10248508;28;20958;-72
2023/09/18 10:33:59;;;;;;;5.67;3.60;;;26.80;39.50;;;;;;10255858;28;20232;-72
2023/09/18 10:39:08;;;;;;;6.07;4.00;;;26.90;39.30;;;;;;10249912;28;20310;-72
2023/09/18 10:44:12;;;;;;;5.37;3.40;;;27.00;38.50;;;;;;10259707;28;20251;-72
2023/09/18 10:49:17;;;;;;;3.80;3.40;;;27.10;38.20;;;;;;10266316;28;20239;-72
2023/09/18 10:54:22;;;;;;;6.80;3.80;;;27.20;38.20;;;;;;10265569;28;20234;-72
2023/09/18 10:59:25;;;;;;;4.83;3.43;;;27.30;37.60;;;;;;10266362;28;20714;-72
2023/09/18 11:04:32;;;;;;;5.13;3.20;;;27.40;37.70;;;;;;10263525;28;20318;-72
2023/09/18 11:09:44;;;;;;;3.40;2.80;;;27.40;37.10;;;;;;10262808;28;20328;-72
2023/09/18 11:14:50;;;;;;;5.53;2.60;;;27.60;36.90;;;;;;10261603;28;20232;-72
2023/09/18 11:20:08;;;;;;;3.43;2.30;;;27.70;36.40;;;;;;10261909;28;20730;-72
2023/09/18 11:25:38;;;;;;;3.70;2.40;;;27.70;34.90;;;;;;10261226;28;20617;-72
2023/09/18 11:30:51;;;;;;;2.77;2.00;;;27.90;35.80;;;;;;10260426;28;20239;-71
2023/09/18 11:35:56;;;;;;;3.23;2.00;;;27.90;34.70;;;;;;10267651;28;20231;-72
2023/09/18 11:41:03;;;;;;;2.73;1.80;;;27.80;34.70;;;;;;10267031;28;20227;-71
2023/09/18 11:46:06;;;;;;;3.17;1.70;;;27.80;34.70;;;;;;10256190;28;20243;-72
2023/09/18 11:51:14;;;;;;;4.63;2.00;;;27.80;34.50;;;;;;10265009;28;20329;-72
2023/09/18 11:56:18;;;;;;;2.50;1.80;;;27.80;34.00;;;;;;10264720;28;20331;-72
2023/09/18 12:01:23;;;;;;;5.40;2.20;;;27.80;34.20;;;;;;10265141;28;21686;-72
2023/09/18 12:06:28;;;;;;;3.03;1.80;;;27.70;33.90;;;;;;10260116;28;20326;-72
2023/09/18 12:11:33;;;;;;;3.37;1.70;;;27.60;33.00;;;;;;10264932;28;20927;-74
2023/09/18 12:16:39;;;;;;;7.47;1.80;;;27.60;33.70;;;;;;10256803;28;20761;-74
2023/09/18 12:21:48;;;;;;;5.83;1.93;;;27.50;33.20;;;;;;10265183;28;20313;-74
2023/09/18 12:26:52;;;;;;;5.77;1.50;;;27.50;33.20;;;;;;10263101;28;20231;-72
2023/09/18 12:31:56;;;;;;;2.97;1.53;;;27.40;33.50;;;;;;10268119;28;20235;-74
2023/09/18 12:37:02;;;;;;;5.20;1.80;;;27.20;33.90;;;;;;10263729;28;20609;-75
2023/09/18 12:42:06;;;;;;;1.83;1.40;;;27.10;33.70;;;;;;10266229;28;20710;-74
2023/09/18 12:47:09;;;;;;;1.73;1.40;;;26.90;33.90;;;;;;10262486;28;20227;-74
2023/09/18 12:52:14;;;;;;;3.23;1.50;;;26.60;34.10;;;;;;10263021;28;20231;-74
2023/09/18 12:57:18;;;;;;;4.43;1.53;;;26.30;34.10;;;;;;10265311;28;20613;-74
2023/09/18 13:02:21;;;;;;;2.00;1.47;;;26.00;34.60;;;;;;10274964;28;20737;-74
2023/09/18 13:07:44;;;;;;;3.17;1.23;;;25.70;35.00;;;;;;10277189;28;20247;-74
2023/09/18 13:12:50;;;;;;;1.93;1.43;;;25.40;35.10;;;;;;10268465;28;20880;-74
2023/09/18 13:17:59;;;;;;;2.47;1.50;;;25.30;35.50;;;;;;10272132;28;20230;-74
2023/09/18 13:23:04;;;;;;;3.00;1.40;;;25.10;36.20;;;;;;10272032;28;20737;-74
2023/09/18 13:28:10;;;;;;;2.17;1.40;;;24.90;36.70;;;;;;10269146;28;20339;-74
2023/09/18 13:33:15;;;;;;;4.53;1.50;;;24.60;37.60;;;;;;10274412;28;20667;-74
2023/09/18 13:38:21;;;;;;;3.07;1.50;;;24.30;37.40;;;;;;10267606;28;20318;-74
2023/09/18 13:43:27;;;;;;;1.97;1.30;;;23.90;38.20;;;;;;10271202;28;20238;-74
2023/09/18 13:48:30;;;;;;;2.73;1.40;;;23.50;38.40;;;;;;10267458;28;20315;-74
2023/09/18 13:53:35;;;;;;;1.53;1.40;;;23.30;39.40;;;;;;10272280;28;20267;-74
2023/09/18 13:58:41;;;;;;;1.30;1.20;;;23.20;39.40;;;;;;10271390;28;20227;-73
2023/09/18 14:03:45;;;;;;;3.00;1.07;;;22.90;39.10;;;;;;10266759;28;20247;-73
2023/09/18 14:08:49;;;;;;;1.60;1.20;;;22.70;39.30;;;;;;10273854;28;20263;-73
2023/09/18 14:13:56;;;;;;;1.93;1.30;;;22.50;41.20;;;;;;10267857;28;20231;-73
2023/09/18 14:19:00;;;;;;;1.83;1.20;;;22.30;41.40;;;;;;10272137;28;20785;-73
2023/09/18 14:24:05;;;;;;;2.80;1.23;;;22.30;40.70;;;;;;10273400;28;20254;-73
2023/09/18 14:29:08;;;;;;;2.07;1.00;;;22.30;42.00;;;;;;10267277;28;20228;-73
2023/09/18 14:34:12;;;;;;;2.97;1.17;;;22.20;41.30;;;;;;10265021;28;20315;-74
2023/09/18 14:39:16;;;;;;;2.33;1.30;;;22.20;41.10;;;;;;10269157;28;20238;-74
2023/09/18 14:44:19;;;;;;;1.30;1.20;;;22.20;41.90;;;;;;10271572;28;20279;-73
2023/09/18 14:49:23;;;;;;;2.27;1.20;;;22.20;41.70;;;;;;10264385;28;20295;-73
2023/09/18 14:54:27;;;;;;;2.37;1.40;;;22.20;41.80;;;;;;10271057;28;20239;-73
2023/09/18 14:59:30;;;;;;;2.00;1.50;;;22.30;42.60;;;;;;10270562;28;20231;-74
2023/09/18 15:04:44;;;;;;;2.37;1.43;;;22.30;42.00;;;;;;10268273;28;20242;-74
2023/09/18 15:09:48;;;;;;;2.27;1.57;;;22.30;41.90;;;;;;10264656;28;20224;-73
2023/09/18 15:14:51;;;;;;;2.47;1.50;;;22.30;43.30;;;;;;10267922;28;20681;-74
2023/09/18 15:19:55;;;;;;;2.07;1.80;;;22.30;42.70;;;;;;10268426;28;20233;-74
2023/09/18 15:25:01;;;;;;;3.90;2.10;;;22.40;43.00;;;;;;10266857;28;20232;-72
2023/09/18 15:30:06;;;;;;;2.60;1.90;;;22.40;43.60;;;;;;10268345;28;20267;-75
2023/09/18 15:35:10;;;;;;;2.97;1.70;;;22.40;43.20;;;;;;10268010;28;20711;-74
2023/09/18 15:40:15;;;;;;;1.73;1.50;;;22.50;43.00;;;;;;10276078;28;20226;-75
2023/09/18 15:45:19;;;;;;;2.43;1.37;;;22.40;43.60;;;;;;10271353;28;20659;-77
2023/09/18 15:50:23;;;;;;;2.27;1.40;;;22.40;43.60;;;;;;10259942;28;20251;-77
2023/09/18 15:55:28;;;;;;;1.90;1.60;;;22.30;43.60;;;;;;10269078;28;20235;-75
2023/09/18 16:00:31;;;;;;;1.97;1.30;;;22.30;44.20;;;;;;10262104;28;20647;-77
2023/09/18 16:05:38;;;;;;;3.43;1.63;;;22.20;43.70;;;;;;10260446;28;20710;-78
2023/09/18 16:10:44;;;;;;;2.30;1.40;;;22.30;44.00;;;;;;10270725;28;20243;-78
2023/09/18 16:15:47;;;;;;;2.03;1.47;;;22.30;44.60;;;;;;10269484;28;20771;-78
2023/09/18 16:20:51;;;;;;;1.80;1.70;;;22.30;43.80;;;;;;10261817;28;20220;-78
2023/09/18 16:25:56;;;;;;;1.53;1.33;;;22.40;43.90;;;;;;10259524;28;20236;-74
2023/09/18 16:31:04;;;;;;;1.60;1.50;;;22.40;44.50;;;;;;10263817;28;20224;-73
2023/09/18 16:36:08;;;;;;;2.50;1.80;;;22.40;43.90;;;;;;10263507;28;20250;-74
2023/09/18 16:41:13;;;;;;;2.13;1.97;;;22.40;44.00;;;;;;10257524;28;20224;-75
2023/09/18 16:46:16;;;;;;;2.23;1.70;;;22.40;44.70;;;;;;10262658;28;20234;-75
2023/09/18 16:51:20;;;;;;;1.93;1.47;;;22.40;44.00;;;;;;10268082;28;20231;-75
2023/09/18 16:56:27;;;;;;;1.53;1.43;;;22.40;44.00;;;;;;10264066;28;20621;-74
2023/09/18 17:01:32;;;;;;;1.80;1.70;;;22.50;44.60;;;;;;10269511;28;20231;-74
2023/09/18 17:06:35;;;;;;;2.23;1.70;;;22.50;44.50;;;;;;10267311;28;20318;-74
2023/09/18 17:11:41;;;;;;;1.50;1.40;;;22.50;43.90;;;;;;10267872;28;20235;-74
2023/09/18 17:16:44;;;;;;;1.50;1.40;;;22.50;44.50;;;;;;10268706;28;20315;-74
2023/09/18 17:21:48;;;;;;;4.67;1.47;;;22.50;43.80;;;;;;10261842;28;20236;-74
2023/09/18 17:26:52;;;;;;;1.40;1.30;;;22.50;43.90;;;;;;10260875;28;20244;-72
2023/09/18 17:31:56;;;;;;;1.83;1.43;;;22.50;44.70;;;;;;10263638;28;20235;-72
2023/09/18 17:36:59;;;;;;;2.00;1.77;;;22.50;43.90;;;;;;10263850;28;20236;-72
2023/09/18 17:42:03;;;;;;;1.97;1.50;;;22.50;43.90;;;;;;10261014;28;20227;-73
2023/09/18 17:47:07;;;;;;;1.63;1.50;;;22.40;44.40;;;;;;10267232;28;20723;-74
2023/09/18 17:52:11;;;;;;;2.37;1.40;;;22.40;44.10;;;;;;10273684;28;20220;-74
2023/09/18 17:57:15;;;;;;;1.60;1.30;;;22.30;43.90;;;;;;10273439;28;20255;-74
2023/09/18 18:02:19;;;;;;;1.73;1.20;;;22.20;44.50;;;;;;10270702;28;20307;-74
2023/09/18 18:07:22;;;;;;;1.20;1.10;;;22.20;44.20;;;;;;10273401;28;20243;-77
2023/09/18 18:12:27;;;;;;;1.57;1.17;;;22.10;44.20;;;;;;10268313;28;20232;-75
2023/09/18 18:17:30;;;;;;;1.57;1.20;;;22.00;44.40;;;;;;10266880;28;20830;-75
2023/09/18 18:22:34;;;;;;;1.70;1.20;;;22.00;44.10;;;;;;10264279;28;20714;-75
2023/09/18 18:27:39;;;;;;;2.23;1.20;;;21.90;43.90;;;;;;10271355;28;20278;-73
2023/09/18 18:32:42;;;;;;;1.90;1.13;;;21.80;44.40;;;;;;10269947;28;20338;-75
2023/09/18 18:37:46;;;;;;;1.40;1.00;;;21.80;44.20;;;;;;10266159;28;20231;-75
2023/09/18 18:42:52;;;;;;;1.23;1.13;;;21.70;44.20;;;;;;10257564;28;20729;-75
2023/09/18 18:47:57;;;;;;;4.13;1.33;;;21.70;44.80;;;;;;10266914;28;20228;-78
2023/09/18 18:53:01;;;;;;;1.37;1.20;;;21.60;44.30;;;;;;10269862;28;20632;-73
2023/09/18 18:58:07;;;;;;;1.60;1.27;;;21.50;44.40;;;;;;10260449;28;20683;-77
2023/09/18 19:03:10;;;;;;;1.27;1.17;;;21.50;45.10;;;;;;10264883;28;20580;-75
2023/09/18 19:08:15;;;;;;;2.10;1.20;;;21.50;44.60;;;;;;10270319;28;20242;-75
2023/09/18 19:13:20;;;;;;;1.30;1.20;;;21.50;45.30;;;;;;10266263;28;20303;-75
2023/09/18 19:18:25;;;;;;;1.50;1.20;;;21.60;45.10;;;;;;10262287;28;20679;-73
2023/09/18 19:23:31;;;;;;;1.23;1.00;;;21.70;44.40;;;;;;10263612;28;20250;-74
2023/09/18 19:28:35;;;;;;;1.73;1.00;;;21.70;44.40;;;;;;10262446;28;20725;-74
2023/09/18 19:33:39;;;;;;;1.67;1.13;;;21.80;44.30;;;;;;10254165;28;20236;-78
2023/09/18 19:38:43;;;;;;;1.30;1.20;;;21.80;43.90;;;;;;10251652;28;20256;-78
2023/09/18 19:43:49;;;;;;;2.03;1.30;;;21.70;43.80;;;;;;10251776;28;20327;-78
2023/09/18 19:48:52;;;;;;;1.17;1.07;;;21.70;44.00;;;;;;10247220;28;20638;-75
2023/09/18 19:53:55;;;;;;;1.33;1.23;;;21.60;43.60;;;;;;10250258;28;20232;-75
2023/09/18 19:59:00;;;;;;;2.33;1.13;;;21.50;43.80;;;;;;10249409;28;20258;-75
2023/09/18 20:04:04;;;;;;;1.13;1.10;;;21.50;44.20;;;;;;10247509;28;20318;-75
2023/09/18 20:09:09;;;;;;;2.70;1.40;;;21.30;43.80;;;;;;10252493;28;20283;-74
2023/09/18 20:14:16;;;;;;;1.77;1.40;;;21.30;44.10;;;;;;10251516;28;20251;-77
2023/09/18 20:19:34;;;;;;;1.53;1.30;;;21.20;44.60;;;;;;10245019;28;20243;-75
2023/09/18 20:24:37;;;;;;;2.07;1.20;;;21.20;44.10;;;;;;10247580;28;20240;-76
2023/09/18 20:29:42;;;;;;;2.93;1.40;;;21.10;44.30;;;;;;10249852;28;20235;-75
2023/09/18 20:34:46;;;;;;;1.33;1.23;;;21.00;44.70;;;;;;10249378;28;20228;-75
2023/09/18 20:39:51;;;;;;;2.00;1.37;;;20.90;44.50;;;;;;10245324;28;20235;-75
2023/09/18 20:44:56;;;;;;;2.10;1.60;;;20.90;44.60;;;;;;10248347;28;20239;-77
2023/09/18 20:49:59;;;;;;;2.47;1.30;;;20.80;45.00;;;;;;10253346;28;20227;-74
2023/09/18 20:55:04;;;;;;;1.50;1.40;;;20.80;44.70;;;;;;10248893;28;20223;-75
2023/09/18 21:00:11;;;;;;;3.27;1.30;;;20.70;44.80;;;;;;10247636;28;20263;-75
2023/09/18 21:05:16;;;;;;;1.87;1.30;;;20.70;45.30;;;;;;10253377;28;20227;-76
2023/09/18 21:10:19;;;;;;;2.00;1.37;;;20.60;44.70;;;;;;10249997;28;20325;-76
2023/09/18 21:15:24;;;;;;;1.67;1.20;;;20.70;44.80;;;;;;10247194;28;20765;-75
2023/09/18 21:20:28;;;;;;;1.50;1.40;;;20.60;45.30;;;;;;10252529;28;20238;-75
2023/09/18 21:25:33;;;;;;;2.40;1.50;;;20.60;45.00;;;;;;10260922;28;20240;-75
2023/09/18 21:30:37;;;;;;;1.57;1.43;;;20.40;45.20;;;;;;10257044;28;20227;-76
2023/09/18 21:35:42;;;;;;;1.70;1.37;;;20.30;45.50;;;;;;10256416;28;20320;-76
2023/09/18 21:40:45;;;;;;;2.23;1.27;;;20.30;45.80;;;;;;10258412;28;20223;-76
2023/09/18 21:45:51;;;;;;;1.40;1.30;;;20.30;45.40;;;;;;10253625;28;20224;-76
2023/09/18 21:50:55;;;;;;;1.70;1.27;;;20.20;46.10;;;;;;10257929;28;20232;-76
2023/09/18 21:55:58;;;;;;;1.43;1.30;;;20.20;45.50;;;;;;10252548;28;20246;-76
2023/09/18 22:01:04;;;;;;;1.93;1.20;;;20.10;45.60;;;;;;10258467;28;21056;-76
2023/09/18 22:06:08;;;;;;;3.50;1.47;;;20.00;46.20;;;;;;10252174;28;20235;-75
2023/09/18 22:11:11;;;;;;;2.07;1.40;;;19.90;45.70;;;;;;10257310;28;20239;-75
2023/09/18 22:16:16;;;;;;;1.93;1.50;;;19.90;45.90;;;;;;10257919;28;20239;-75
2023/09/18 22:21:19;;;;;;;2.07;1.30;;;19.90;46.30;;;;;;10264048;28;20232;-75
2023/09/18 22:26:22;;;;;;;1.40;1.30;;;19.90;46.00;;;;;;10253948;28;20228;-75
2023/09/18 22:31:27;;;;;;;1.40;1.30;;;19.80;46.00;;;;;;10256271;28;20232;-75
2023/09/18 22:36:31;;;;;;;1.30;1.07;;;19.80;46.50;;;;;;10259183;28;20777;-75
2023/09/18 22:41:35;;;;;;;1.53;1.43;;;19.80;46.20;;;;;;10254046;28;20239;-75
2023/09/18 22:47:16;;;;;;;1.33;1.20;;;19.80;46.40;;;;;;10250987;28;20263;-76
2023/09/18 22:52:39;;;;;;;1.40;1.20;;;19.70;47.10;;;;;;10254255;28;20215;-75
2023/09/18 22:57:46;;;;;;;2.10;1.50;;;19.80;47.20;;;;;;10258064;28;20578;-75
2023/09/18 23:02:50;;;;;;;1.63;1.40;;;19.80;46.90;;;;;;10253872;28;20219;-75
2023/09/18 23:07:56;;;;;;;1.60;1.50;;;19.80;46.40;;;;;;10247585;28;20652;-75
2023/09/18 23:13:03;;;;;;;3.33;1.40;;;19.80;46.50;;;;;;10260508;28;20307;-75
2023/09/18 23:18:07;;;;;;;1.40;1.30;;;19.80;46.50;;;;;;10257256;28;20220;-74
2023/09/18 23:23:11;;;;;;;1.47;1.37;;;19.90;46.20;;;;;;10256559;28;20251;-75
2023/09/18 23:28:16;;;;;;;1.40;1.30;;;19.80;46.20;;;;;;10256282;28;20851;-75
2023/09/18 23:33:20;;;;;;;1.50;1.40;;;19.80;46.40;;;;;;10258564;28;20235;-75
2023/09/18 23:38:26;;;;;;;1.73;1.30;;;19.80;46.10;;;;;;10261484;28;20283;-75
2023/09/18 23:43:33;;;;;;;1.27;1.17;;;19.80;46.30;;;;;;10252595;28;20228;-75
2023/09/18 23:48:38;;;;;;;1.70;1.30;;;19.90;46.70;;;;;;10255311;28;20287;-75
2023/09/18 23:53:41;;;;;;;1.30;1.23;;;19.90;46.40;;;;;;10257108;28;20717;-75
2023/09/18 23:58:47;;;;;;;1.73;1.30;;;19.90;46.30;;;;;;10262744;28;21225;-75
